createdAt,value
2022-12-31T00:02:00.274Z,76.67
2022-12-31T00:04:29.900Z,86.33
2022-12-31T00:06:59.428Z,73.67
2022-12-31T00:09:28.970Z,81.00
2022-12-31T00:11:58.531Z,77.67
2022-12-31T00:14:28.092Z,81.33
2022-12-31T00:16:57.646Z,86.00
2022-12-31T00:19:27.201Z,75.67
2022-12-31T00:21:56.830Z,74.33
2022-12-31T00:24:31.101Z,80.33
2022-12-31T00:27:00.750Z,72.33
2022-12-31T00:29:30.340Z,76.33
2022-12-31T00:31:59.884Z,82.00
2022-12-31T00:34:29.423Z,81.00
2022-12-31T00:36:59.005Z,85.50
2022-12-31T00:39:28.621Z,78.33
2022-12-31T00:41:58.183Z,80.67
2022-12-31T00:44:27.725Z,81.33
2022-12-31T00:46:57.236Z,76.00
2022-12-31T00:49:26.734Z,85.67
2022-12-31T00:51:56.227Z,85.33
2022-12-31T00:54:25.803Z,91.67
2022-12-31T00:56:55.440Z,83.67
2022-12-31T00:59:25.122Z,83.00
2022-12-31T01:01:54.795Z,89.33
2022-12-31T01:04:24.373Z,93.33
2022-12-31T01:06:53.968Z,93.00
2022-12-31T01:09:23.593Z,89.33
2022-12-31T01:11:53.265Z,84.00
2022-12-31T01:14:23.057Z,93.33
2022-12-31T01:16:54.473Z,83.00
2022-12-31T01:19:29.171Z,96.33
2022-12-31T01:21:58.702Z,93.00
2022-12-31T01:24:28.245Z,83.33
2022-12-31T01:26:58.058Z,87.50
2022-12-31T01:29:27.777Z,89.67
2022-12-31T01:31:57.326Z,93.67
2022-12-31T01:34:26.907Z,98.67
2022-12-31T01:36:56.431Z,95.33
2022-12-31T01:39:26.102Z,94.67
2022-12-31T01:41:55.760Z,97.33
2022-12-31T01:44:27.954Z,91.67
2022-12-31T01:47:02.681Z,88.00
2022-12-31T01:49:53.556Z,84.33
2022-12-31T01:52:37.498Z,109.00
2022-12-31T01:55:20.282Z,91.67
2022-12-31T01:57:57.557Z,94.67
2022-12-31T02:00:27.354Z,93.67
2022-12-31T02:02:56.899Z,85.33
2022-12-31T02:05:48.257Z,89.00
2022-12-31T02:08:18.307Z,94.00
2022-12-31T02:10:47.781Z,86.75
2022-12-31T02:13:17.537Z,89.33
2022-12-31T02:16:17.504Z,91.00
2022-12-31T02:19:32.782Z,78.33
2022-12-31T02:22:45.410Z,84.00
2022-12-31T02:26:01.479Z,85.00
2022-12-31T02:29:21.382Z,79.33
2022-12-31T02:31:58.051Z,85.67
2022-12-31T02:34:50.824Z,88.00
2022-12-31T02:37:23.658Z,90.75
2022-12-31T02:39:53.886Z,90.33
2022-12-31T02:42:23.441Z,83.33
2022-12-31T02:44:53.076Z,85.33
2022-12-31T02:48:31.752Z,93.67
2022-12-31T02:51:46.894Z,80.67
2022-12-31T02:55:00.073Z,81.67
2022-12-31T02:57:54.886Z,81.33
2022-12-31T03:00:43.428Z,87.00
2022-12-31T03:03:13.099Z,89.67
2022-12-31T03:05:44.269Z,102.67
2022-12-31T03:08:23.798Z,75.00
2022-12-31T03:10:53.396Z,88.00
2022-12-31T03:13:22.115Z,85.67
2022-12-31T03:15:51.685Z,88.33
2022-12-31T03:18:41.371Z,81.33
2022-12-31T03:21:32.354Z,81.67
2022-12-31T03:24:20.374Z,82.33
2022-12-31T03:26:49.937Z,76.33
2022-12-31T03:29:19.436Z,86.00
2022-12-31T03:31:48.937Z,79.67
2022-12-31T03:34:18.457Z,74.33
2022-12-31T03:36:47.977Z,84.67
2022-12-31T03:39:17.491Z,76.00
2022-12-31T03:41:47.097Z,75.67
2022-12-31T03:44:16.640Z,91.67
2022-12-31T03:46:46.156Z,73.33
2022-12-31T03:49:15.905Z,70.00
2022-12-31T03:51:45.369Z,76.50
2022-12-31T03:54:14.901Z,79.33
2022-12-31T03:56:44.447Z,75.67
2022-12-31T03:59:14.035Z,73.00
2022-12-31T04:01:43.617Z,78.00
2022-12-31T04:04:13.194Z,85.33
2022-12-31T04:06:42.734Z,82.33
2022-12-31T04:09:12.277Z,83.67
2022-12-31T04:11:41.857Z,88.33
2022-12-31T04:14:11.906Z,87.67
2022-12-31T04:16:41.541Z,85.33
2022-12-31T04:19:12.419Z,89.00
2022-12-31T04:21:42.043Z,84.67
2022-12-31T04:24:11.708Z,90.00
2022-12-31T04:26:41.376Z,85.00
2022-12-31T04:29:12.092Z,83.67
2022-12-31T04:31:41.773Z,78.67
2022-12-31T04:34:11.485Z,75.33
2022-12-31T04:36:41.051Z,87.33
2022-12-31T04:39:10.605Z,69.00
2022-12-31T04:41:40.136Z,76.00
2022-12-31T04:44:09.865Z,71.33
2022-12-31T04:46:39.565Z,69.67
2022-12-31T04:49:09.482Z,79.67
2022-12-31T04:51:39.675Z,81.00
2022-12-31T04:54:08.452Z,68.00
2022-12-31T04:56:38.067Z,68.67
2022-12-31T04:59:08.969Z,80.00
2022-12-31T05:01:39.633Z,71.67
2022-12-31T05:04:09.247Z,73.00
2022-12-31T05:06:38.836Z,67.67
2022-12-31T05:09:08.352Z,68.33
2022-12-31T05:11:38.273Z,77.67
2022-12-31T05:14:07.765Z,73.00
2022-12-31T05:16:37.332Z,73.33
2022-12-31T05:19:09.656Z,66.67
2022-12-31T05:21:39.496Z,69.33
2022-12-31T05:24:09.199Z,72.00
2022-12-31T05:26:38.659Z,64.33
2022-12-31T05:29:08.680Z,76.33
2022-12-31T05:31:38.171Z,71.33
2022-12-31T05:34:07.615Z,60.00
2022-12-31T05:36:37.073Z,63.00
2022-12-31T05:39:06.559Z,65.00
2022-12-31T05:41:36.411Z,78.33
2022-12-31T05:44:05.993Z,72.00
2022-12-31T05:46:35.530Z,71.33
2022-12-31T05:49:05.112Z,73.00
2022-12-31T05:51:34.731Z,74.33
2022-12-31T05:54:04.584Z,56.67
2022-12-31T05:56:34.077Z,67.33
2022-12-31T05:59:03.625Z,70.00
2022-12-31T06:01:33.110Z,77.33
2022-12-31T06:04:02.729Z,72.67
2022-12-31T06:06:32.728Z,67.33
2022-12-31T06:09:03.482Z,74.00
2022-12-31T06:11:32.994Z,66.67
2022-12-31T06:14:02.845Z,71.33
2022-12-31T06:16:32.366Z,68.00
2022-12-31T06:19:02.879Z,72.33
2022-12-31T06:21:32.462Z,69.00
2022-12-31T06:24:01.928Z,60.00
2022-12-31T06:26:31.360Z,67.33
2022-12-31T06:29:00.885Z,64.67
2022-12-31T06:31:30.565Z,77.00
2022-12-31T06:34:00.125Z,90.33
2022-12-31T06:36:30.652Z,115.75
2022-12-31T06:39:00.344Z,90.67
2022-12-31T06:41:32.522Z,103.25
2022-12-31T06:44:02.076Z,86.00
2022-12-31T06:46:31.755Z,86.33
2022-12-31T06:49:01.264Z,72.00
2022-12-31T06:51:30.887Z,62.67
2022-12-31T06:54:00.366Z,71.67
2022-12-31T06:56:34.381Z,75.67
2022-12-31T06:59:05.641Z,76.00
2022-12-31T07:02:27.418Z,65.67
2022-12-31T07:05:41.043Z,68.00
2022-12-31T07:08:52.464Z,94.00
2022-12-31T07:11:30.681Z,87.33
2022-12-31T07:14:46.897Z,68.67
2022-12-31T07:17:58.161Z,91.00
2022-12-31T07:20:28.538Z,74.33
2022-12-31T07:22:58.563Z,72.00
2022-12-31T07:25:28.750Z,63.67
2022-12-31T07:29:04.699Z,86.00
2022-12-31T07:32:21.584Z,64.67
2022-12-31T07:34:59.678Z,67.67
2022-12-31T07:38:29.193Z,69.00
2022-12-31T07:41:47.223Z,73.67
2022-12-31T07:44:40.555Z,60.67
2022-12-31T07:47:23.865Z,78.00
2022-12-31T07:49:55.001Z,83.33
2022-12-31T07:52:25.508Z,68.67
2022-12-31T07:54:55.067Z,90.67
2022-12-31T07:57:33.832Z,66.33
2022-12-31T08:00:16.111Z,67.67
2022-12-31T08:03:59.342Z,65.00
2022-12-31T08:07:06.667Z,63.67
2022-12-31T08:10:23.532Z,65.33
2022-12-31T08:13:02.482Z,73.00
2022-12-31T08:15:32.476Z,73.00
2022-12-31T08:18:02.378Z,74.00
2022-12-31T08:20:36.684Z,73.00
2022-12-31T08:24:14.023Z,72.67
2022-12-31T08:27:17.273Z,58.67
2022-12-31T08:30:12.584Z,60.33
2022-12-31T08:33:40.599Z,66.00
2022-12-31T08:36:57.120Z,68.67
2022-12-31T08:40:02.968Z,61.33
2022-12-31T08:43:07.850Z,63.33
2022-12-31T08:45:52.425Z,57.00
2022-12-31T08:48:43.245Z,114.75
2022-12-31T08:51:22.338Z,80.00
2022-12-31T08:53:53.537Z,86.00
2022-12-31T08:56:42.009Z,68.67
2022-12-31T08:59:46.163Z,67.33
2022-12-31T09:03:28.675Z,71.67
2022-12-31T09:06:21.257Z,68.33
2022-12-31T09:09:39.108Z,65.33
2022-12-31T09:12:29.442Z,57.00
2022-12-31T09:15:21.675Z,64.67
2022-12-31T09:17:52.625Z,62.00
2022-12-31T09:20:42.681Z,66.67
2022-12-31T09:23:14.530Z,67.33
2022-12-31T09:26:39.525Z,88.33
2022-12-31T09:29:51.288Z,60.33
2022-12-31T09:33:00.773Z,57.33
2022-12-31T09:35:57.116Z,65.33
2022-12-31T09:38:53.262Z,73.33
2022-12-31T09:42:28.999Z,70.33
2022-12-31T09:46:01.167Z,74.33
2022-12-31T09:49:01.115Z,84.67
2022-12-31T09:52:07.696Z,69.00
2022-12-31T09:55:22.950Z,64.00
2022-12-31T09:58:35.289Z,60.67
2022-12-31T10:01:24.881Z,58.50
2022-12-31T10:04:43.759Z,71.67
2022-12-31T10:07:33.936Z,63.00
2022-12-31T10:10:13.886Z,66.67
2022-12-31T10:13:41.500Z,66.67
2022-12-31T10:16:32.083Z,73.67
2022-12-31T10:19:35.878Z,66.00
2022-12-31T10:22:45.194Z,76.67
2022-12-31T10:26:12.544Z,67.33
2022-12-31T10:29:19.392Z,73.33
2022-12-31T10:32:17.888Z,63.67
2022-12-31T10:35:46.109Z,71.67
2022-12-31T10:39:00.767Z,67.67
2022-12-31T10:42:05.655Z,66.00
2022-12-31T10:45:15.587Z,73.00
2022-12-31T10:48:32.300Z,81.33
2022-12-31T10:51:32.217Z,75.33
2022-12-31T10:54:45.212Z,71.33
2022-12-31T10:57:44.494Z,76.67
2022-12-31T11:00:25.234Z,76.00
2022-12-31T11:03:45.697Z,77.67
2022-12-31T11:07:03.523Z,80.00
2022-12-31T11:09:55.248Z,70.33
2022-12-31T11:13:02.865Z,67.33
2022-12-31T11:16:47.862Z,73.67
2022-12-31T11:20:01.517Z,75.00
2022-12-31T11:23:01.018Z,78.33
2022-12-31T11:26:35.094Z,74.00
2022-12-31T11:29:22.364Z,75.67
2022-12-31T11:32:36.608Z,85.33
2022-12-31T11:35:52.591Z,86.33
2022-12-31T11:38:51.662Z,82.00
2022-12-31T11:42:14.523Z,72.33
2022-12-31T11:45:15.791Z,80.00
2022-12-31T11:48:30.240Z,79.00
2022-12-31T11:51:50.217Z,78.67
2022-12-31T11:55:00.721Z,69.67
2022-12-31T11:57:42.965Z,79.33
2022-12-31T12:00:23.231Z,75.33
2022-12-31T12:03:01.750Z,81.00
2022-12-31T12:05:32.700Z,81.33
2022-12-31T12:08:03.027Z,78.67
2022-12-31T12:11:08.199Z,88.67
2022-12-31T12:13:37.660Z,75.00
2022-12-31T12:16:09.157Z,77.00
2022-12-31T12:18:49.105Z,84.33
2022-12-31T12:21:24.607Z,102.75
2022-12-31T12:24:14.676Z,95.33
2022-12-31T12:26:45.656Z,89.67
2022-12-31T12:29:23.747Z,215.50
2022-12-31T12:32:16.885Z,107.00
2022-12-31T12:34:49.908Z,92.25
2022-12-31T12:37:33.276Z,92.00
2022-12-31T12:40:33.423Z,83.33
2022-12-31T12:43:04.182Z,83.67
2022-12-31T12:45:52.067Z,83.33
2022-12-31T12:48:39.790Z,82.33
2022-12-31T12:51:48.739Z,80.33
2022-12-31T12:55:18.620Z,84.33
2022-12-31T12:58:19.392Z,70.00
2022-12-31T13:01:37.430Z,82.00
2022-12-31T13:05:02.401Z,77.00
2022-12-31T13:07:56.430Z,77.00
2022-12-31T13:10:42.084Z,71.67
2022-12-31T13:13:30.799Z,80.00
2022-12-31T13:16:22.578Z,78.67
2022-12-31T13:19:39.922Z,110.67
2022-12-31T13:22:38.312Z,82.67
2022-12-31T13:25:31.640Z,88.67
2022-12-31T13:28:12.400Z,86.67
2022-12-31T13:31:09.905Z,85.00
2022-12-31T13:33:54.832Z,81.67
2022-12-31T13:36:27.840Z,82.33
2022-12-31T13:39:03.132Z,83.00
2022-12-31T13:41:53.985Z,79.67
2022-12-31T13:44:46.312Z,81.00
2022-12-31T13:48:05.770Z,81.00
2022-12-31T13:50:53.159Z,82.75
2022-12-31T13:54:07.515Z,145.00
2022-12-31T13:56:39.923Z,120.00
2022-12-31T13:59:29.985Z,87.67
2022-12-31T14:03:05.142Z,76.33
2022-12-31T14:06:15.359Z,86.00
2022-12-31T14:08:46.194Z,80.67
2022-12-31T14:11:58.681Z,86.33
2022-12-31T14:15:00.238Z,84.33
2022-12-31T14:18:06.278Z,88.33
2022-12-31T14:21:45.100Z,85.75
2022-12-31T14:24:37.683Z,85.25
2022-12-31T14:27:37.467Z,93.00
2022-12-31T14:30:20.791Z,91.00
2022-12-31T14:33:58.196Z,87.00
2022-12-31T14:37:00.102Z,96.00
2022-12-31T14:40:11.546Z,95.67
2022-12-31T14:43:20.528Z,96.00
2022-12-31T14:46:31.877Z,96.00
2022-12-31T14:50:05.678Z,100.00
2022-12-31T14:52:52.854Z,94.33
2022-12-31T14:55:36.599Z,89.00
2022-12-31T14:58:31.665Z,89.75
2022-12-31T15:01:22.460Z,91.00
2022-12-31T15:03:57.525Z,93.67
2022-12-31T15:06:55.174Z,181.00
2022-12-31T15:10:23.182Z,105.50
2022-12-31T15:13:56.648Z,93.33
2022-12-31T15:16:47.253Z,193.00
2022-12-31T15:19:39.519Z,120.50
2022-12-31T15:22:47.736Z,117.00
2022-12-31T15:25:41.558Z,112.00
2022-12-31T15:28:39.822Z,75.00
2022-12-31T15:31:20.473Z,165.67
2022-12-31T15:34:01.190Z,183.57
2022-12-31T15:36:39.480Z,123.00
2022-12-31T15:39:13.352Z,120.00
2022-12-31T15:42:18.636Z,165.00
2022-12-31T15:45:00.070Z,130.00
2022-12-31T15:47:43.041Z,146.50
2022-12-31T15:50:22.127Z,140.50
2022-12-31T15:53:02.251Z,147.25
2022-12-31T15:55:49.503Z,184.38
2022-12-31T15:58:30.463Z,220.50
2022-12-31T16:01:34.418Z,182.00
2022-12-31T16:04:42.722Z,202.50
2022-12-31T16:07:13.436Z,193.00
2022-12-31T16:09:45.248Z,190.50
2022-12-31T16:12:27.853Z,235.00
2022-12-31T16:15:03.272Z,227.75
2022-12-31T16:17:39.862Z,300.00
2022-12-31T16:20:30.220Z,218.00
2022-12-31T16:23:03.170Z,240.50
2022-12-31T16:25:34.241Z,286.75
2022-12-31T16:28:05.071Z,286.25
2022-12-31T16:30:38.519Z,245.50
2022-12-31T16:33:15.404Z,239.25
2022-12-31T16:36:00.866Z,234.50
2022-12-31T16:38:37.947Z,206.25
2022-12-31T16:41:24.559Z,147.00
2022-12-31T16:43:52.650Z,179.50
2022-12-31T16:46:31.045Z,263.25
2022-12-31T16:49:20.025Z,216.29
2022-12-31T16:51:49.819Z,209.50
2022-12-31T16:54:38.396Z,208.25
2022-12-31T16:57:11.138Z,219.50
2022-12-31T16:59:46.485Z,87.40
2022-12-31T17:02:27.467Z,288.75
2022-12-31T17:04:57.234Z,214.25
2022-12-31T17:07:29.621Z,189.75
2022-12-31T17:10:22.646Z,221.00
2022-12-31T17:15:53.920Z,252.50
2022-12-31T17:18:28.930Z,220.00
2022-12-31T17:21:10.204Z,308.75
2022-12-31T17:23:41.746Z,247.75
2022-12-31T17:26:21.085Z,264.00
2022-12-31T17:28:53.906Z,294.00
2022-12-31T17:31:40.484Z,313.75
2022-12-31T17:34:14.029Z,337.50
2022-12-31T17:37:11.574Z,287.25
2022-12-31T17:39:55.070Z,279.75
2022-12-31T17:42:38.358Z,218.75
2022-12-31T17:45:21.296Z,227.00
2022-12-31T17:47:54.057Z,201.67
2022-12-31T17:50:28.643Z,205.75
2022-12-31T17:53:11.294Z,214.50
2022-12-31T17:55:45.587Z,211.00
2022-12-31T17:58:29.756Z,160.00
2022-12-31T18:01:00.889Z,146.00
2022-12-31T18:03:29.125Z,145.00
2022-12-31T18:05:59.009Z,190.67
2022-12-31T18:08:30.417Z,188.50
2022-12-31T18:11:00.184Z,232.75
2022-12-31T18:13:30.923Z,236.50
2022-12-31T18:16:00.647Z,243.25
2022-12-31T18:18:37.501Z,292.33
2022-12-31T18:21:28.394Z,260.50
2022-12-31T18:26:34.859Z,242.25
2022-12-31T18:29:19.573Z,257.00
2022-12-31T18:31:50.666Z,268.50
2022-12-31T18:34:20.404Z,243.25
2022-12-31T18:36:52.096Z,323.75
2022-12-31T18:39:21.847Z,311.33
2022-12-31T18:41:52.281Z,258.00
2022-12-31T18:44:21.014Z,258.00
2022-12-31T18:46:53.166Z,298.75
2022-12-31T18:49:22.976Z,302.33
2022-12-31T18:51:54.368Z,247.00
2022-12-31T18:54:24.954Z,232.75
2022-12-31T18:56:57.180Z,215.00
2022-12-31T18:59:28.015Z,223.50
2022-12-31T19:01:59.012Z,219.25
2022-12-31T19:04:28.737Z,257.00
2022-12-31T19:06:59.267Z,236.25
2022-12-31T19:09:45.967Z,250.25
2022-12-31T19:12:15.676Z,233.00
2022-12-31T19:14:46.237Z,231.50
2022-12-31T19:17:17.692Z,210.29
2022-12-31T19:19:49.115Z,183.50
2022-12-31T19:22:16.944Z,174.50
2022-12-31T19:24:48.343Z,180.29
2022-12-31T19:27:17.140Z,147.00
2022-12-31T19:29:45.005Z,177.50
2022-12-31T19:32:14.616Z,149.67
2022-12-31T19:34:44.263Z,161.67
2022-12-31T19:37:16.340Z,165.33
2022-12-31T19:39:48.097Z,163.71
2022-12-31T19:42:17.790Z,169.00
2022-12-31T19:44:45.587Z,172.00
2022-12-31T19:47:15.284Z,163.00
2022-12-31T19:49:45.044Z,194.75
2022-12-31T19:52:14.617Z,201.25
2022-12-31T19:54:42.487Z,200.00
2022-12-31T19:57:10.316Z,197.00
2022-12-31T19:59:40.049Z,229.25
2022-12-31T20:02:11.142Z,222.50
2022-12-31T20:04:40.964Z,245.25
2022-12-31T20:07:10.697Z,230.25
2022-12-31T20:09:40.305Z,242.00
2022-12-31T20:12:09.093Z,232.00
2022-12-31T20:14:38.758Z,236.75
2022-12-31T20:17:09.381Z,241.00
2022-12-31T20:19:40.119Z,273.00
2022-12-31T20:22:09.747Z,222.00
2022-12-31T20:24:39.991Z,195.75
2022-12-31T20:27:18.079Z,226.71
2022-12-31T20:29:48.154Z,182.50
2022-12-31T20:32:17.772Z,190.25
2022-12-31T20:34:49.210Z,193.57
2022-12-31T20:37:17.129Z,192.00
2022-12-31T20:39:46.749Z,183.00
2022-12-31T20:42:16.374Z,209.75
2022-12-31T20:44:46.819Z,207.00
2022-12-31T20:47:18.389Z,190.43
2022-12-31T20:52:37.661Z,207.00
2022-12-31T20:55:09.688Z,204.75
2022-12-31T20:57:40.052Z,191.25
2022-12-31T21:00:11.023Z,258.25
2022-12-31T21:02:42.455Z,242.75
2022-12-31T21:05:13.019Z,242.50
2022-12-31T21:07:42.753Z,240.00
2022-12-31T21:10:10.838Z,225.00
2022-12-31T21:12:44.620Z,285.25
2022-12-31T21:15:14.663Z,241.50
2022-12-31T21:17:46.711Z,206.13
2022-12-31T21:20:16.816Z,175.25
2022-12-31T21:22:46.457Z,161.00
2022-12-31T21:25:14.277Z,140.50
2022-12-31T21:27:44.825Z,138.75
2022-12-31T21:30:19.589Z,243.50
2022-12-31T21:32:49.745Z,221.00
2022-12-31T21:38:09.824Z,180.25
2022-12-31T21:40:39.525Z,184.75
2022-12-31T21:43:10.014Z,170.25
2022-12-31T21:45:38.272Z,172.00
2022-12-31T21:48:26.019Z,180.25
2022-12-31T21:51:13.013Z,197.75
2022-12-31T21:53:42.718Z,250.50
2022-12-31T21:56:14.768Z,264.67
2022-12-31T21:59:15.456Z,238.00
2022-12-31T22:02:03.692Z,219.67
2022-12-31T22:05:01.461Z,220.50
2022-12-31T22:07:23.047Z,198.67
2022-12-31T22:09:53.500Z,167.25
2022-12-31T22:12:24.096Z,155.00
2022-12-31T22:15:14.524Z,164.50
2022-12-31T22:17:43.346Z,163.57
2022-12-31T22:20:29.363Z,177.25
2022-12-31T22:22:57.390Z,155.00
2022-12-31T22:25:28.850Z,143.57
2022-12-31T22:28:36.354Z,124.50
2022-12-31T22:30:49.767Z,114.67
2022-12-31T22:33:20.318Z,163.50
2022-12-31T22:36:14.503Z,182.25
2022-12-31T22:38:43.302Z,174.50
2022-12-31T22:41:17.221Z,189.75
2022-12-31T22:43:51.460Z,186.25
2022-12-31T22:46:28.007Z,210.00
2022-12-31T22:48:59.607Z,160.50
2022-12-31T22:51:56.903Z,191.50
2022-12-31T22:54:22.163Z,186.25
2022-12-31T22:56:49.942Z,184.50
2022-12-31T22:59:19.666Z,182.00
2022-12-31T23:01:49.315Z,251.00
2022-12-31T23:04:19.068Z,200.75
2022-12-31T23:06:48.968Z,301.50
2022-12-31T23:09:37.909Z,258.00
2022-12-31T23:12:11.175Z,703.00
2022-12-31T23:15:11.197Z,821.00
2022-12-31T23:18:06.281Z,628.36
2022-12-31T23:20:54.319Z,305.33
2022-12-31T23:23:25.851Z,258.50
2022-12-31T23:26:02.322Z,219.00
2022-12-31T23:28:30.233Z,190.50
2022-12-31T23:31:07.393Z,204.38
2022-12-31T23:33:35.329Z,182.00
2022-12-31T23:36:07.891Z,188.75
2022-12-31T23:38:37.593Z,191.33
2022-12-31T23:41:18.697Z,196.50
2022-12-31T23:43:50.076Z,235.75
2022-12-31T23:46:19.861Z,236.75
2022-12-31T23:48:49.882Z,325.67
2022-12-31T23:51:22.011Z,400.00
2022-12-31T23:53:53.431Z,554.20
2022-12-31T23:56:24.222Z,489.67
2022-12-31T23:58:59.255Z,408.67
